createdAt,value
2023-01-10T00:02:44.497Z,100.00
2023-01-10T00:07:46.705Z,100.00
2023-01-10T00:13:07.330Z,100.00
2023-01-10T00:18:09.471Z,100.00
2023-01-10T00:23:11.200Z,100.00
2023-01-10T00:28:15.581Z,100.00
2023-01-10T00:33:19.749Z,100.00
2023-01-10T00:38:21.287Z,100.00
2023-01-10T00:43:41.655Z,100.00
2023-01-10T00:48:45.397Z,100.00
2023-01-10T00:53:46.946Z,100.00
2023-01-10T00:58:48.443Z,100.00
2023-01-10T01:03:49.943Z,100.00
2023-01-10T01:08:51.696Z,100.00
2023-01-10T01:13:53.231Z,100.00
2023-01-10T01:18:54.744Z,100.00
2023-01-10T01:23:59.189Z,100.00
2023-01-10T01:29:00.804Z,100.00
2023-01-10T01:34:02.339Z,100.00
2023-01-10T01:39:04.384Z,100.00
2023-01-10T01:44:12.984Z,100.00
2023-01-10T01:49:20.020Z,100.00
2023-01-10T01:54:21.610Z,100.00
2023-01-10T01:59:33.553Z,100.00
2023-01-10T02:04:57.670Z,100.00
2023-01-10T02:10:11.097Z,100.00
2023-01-10T02:15:15.242Z,100.00
2023-01-10T02:20:19.376Z,100.00
2023-01-10T02:25:32.656Z,100.00
2023-01-10T02:30:59.889Z,100.00
2023-01-10T02:36:16.615Z,100.00
2023-01-10T02:41:47.521Z,100.00
2023-01-10T02:46:49.865Z,100.00
2023-01-10T02:51:51.543Z,100.00
2023-01-10T02:57:17.846Z,100.00
2023-01-10T03:02:28.651Z,100.00
2023-01-10T03:07:53.211Z,100.00
2023-01-10T03:13:00.945Z,100.00
2023-01-10T03:18:06.914Z,100.00
2023-01-10T03:23:10.477Z,100.00
2023-01-10T03:28:15.495Z,100.00
2023-01-10T03:33:22.344Z,100.00
2023-01-10T03:38:32.643Z,100.00
2023-01-10T03:44:07.313Z,100.00
2023-01-10T03:49:10.986Z,100.00
2023-01-10T03:54:16.625Z,100.00
2023-01-10T03:59:23.313Z,100.00
2023-01-10T04:04:25.032Z,100.00
2023-01-10T04:09:26.746Z,100.00
2023-01-10T04:14:28.767Z,100.00
2023-01-10T04:19:30.360Z,100.00
2023-01-10T04:24:32.367Z,100.00
2023-01-10T04:29:33.872Z,100.00
2023-01-10T04:34:35.391Z,100.00
2023-01-10T04:39:36.896Z,100.00
2023-01-10T04:44:38.394Z,100.00
2023-01-10T04:49:39.941Z,100.00
2023-01-10T04:54:41.481Z,100.00
2023-01-10T04:59:45.179Z,100.00
2023-01-10T05:04:46.675Z,100.00
2023-01-10T05:09:48.164Z,100.00
2023-01-10T05:14:49.732Z,100.00
2023-01-10T05:19:51.281Z,100.00
2023-01-10T05:24:54.605Z,100.00
2023-01-10T05:29:56.247Z,100.00
2023-01-10T05:34:57.759Z,100.00
2023-01-10T05:39:59.327Z,100.00
2023-01-10T05:45:00.888Z,100.00
2023-01-10T05:50:02.461Z,100.00
2023-01-10T05:55:04.356Z,100.00
2023-01-10T06:00:06.701Z,100.00
2023-01-10T06:05:13.018Z,100.00
2023-01-10T06:10:14.861Z,100.00
2023-01-10T06:15:17.356Z,100.00
2023-01-10T06:20:18.987Z,100.00
2023-01-10T06:25:20.670Z,100.00
2023-01-10T06:30:22.319Z,100.00
2023-01-10T06:35:23.868Z,100.00
2023-01-10T06:40:26.599Z,100.00
2023-01-10T06:45:28.208Z,100.00
2023-01-10T06:50:29.770Z,100.00
2023-01-10T06:55:31.814Z,100.00
2023-01-10T07:00:33.643Z,100.00
2023-01-10T07:05:35.268Z,100.00
2023-01-10T07:10:36.864Z,100.00
2023-01-10T07:15:38.399Z,100.00
2023-01-10T07:20:40.058Z,100.00
2023-01-10T07:25:41.595Z,100.00
2023-01-10T07:30:43.127Z,100.00
2023-01-10T07:35:44.646Z,100.00
2023-01-10T07:40:46.223Z,100.00
2023-01-10T07:45:47.941Z,100.00
2023-01-10T07:50:49.487Z,100.00
2023-01-10T07:55:51.291Z,100.00
2023-01-10T08:00:57.556Z,100.00
2023-01-10T08:06:06.063Z,100.00
2023-01-10T08:11:07.788Z,100.00
2023-01-10T08:16:09.629Z,100.00
2023-01-10T08:21:11.234Z,100.00
2023-01-10T08:26:12.781Z,100.00
2023-01-10T08:31:14.697Z,100.00
2023-01-10T08:36:18.780Z,100.00
2023-01-10T08:41:20.393Z,100.00
2023-01-10T08:46:22.139Z,100.00
2023-01-10T08:51:24.068Z,100.00
2023-01-10T08:56:25.743Z,100.00
2023-01-10T09:01:27.523Z,100.00
2023-01-10T09:06:29.192Z,100.00
2023-01-10T09:11:30.709Z,100.00
2023-01-10T09:16:32.243Z,100.00
2023-01-10T09:21:33.782Z,100.00
2023-01-10T09:26:35.308Z,100.00
2023-01-10T09:31:36.847Z,100.00
2023-01-10T09:36:38.425Z,100.00
2023-01-10T09:41:50.072Z,100.00
2023-01-10T09:47:08.419Z,100.00
2023-01-10T09:52:32.604Z,100.00
2023-01-10T09:57:35.081Z,100.00
2023-01-10T10:02:42.923Z,100.00
2023-01-10T10:07:45.711Z,100.00
2023-01-10T10:12:50.047Z,100.00
2023-01-10T10:17:57.607Z,100.00
2023-01-10T10:23:26.738Z,100.00
2023-01-10T10:28:55.643Z,100.00
2023-01-10T10:34:03.273Z,100.00
2023-01-10T10:39:06.995Z,100.00
2023-01-10T10:44:26.894Z,100.00
2023-01-10T10:49:37.567Z,100.00
2023-01-10T10:54:39.234Z,100.00
2023-01-10T10:59:46.405Z,100.00
2023-01-10T11:04:53.023Z,100.00
2023-01-10T11:09:54.736Z,100.00
2023-01-10T11:14:56.477Z,100.00
2023-01-10T11:19:59.643Z,100.00
2023-01-10T11:25:03.019Z,100.00
2023-01-10T11:30:09.310Z,100.00
2023-01-10T11:35:21.921Z,100.00
2023-01-10T11:40:26.099Z,100.00
2023-01-10T11:45:33.439Z,100.00
2023-01-10T11:50:38.268Z,100.00
2023-01-10T11:55:39.860Z,100.00
2023-01-10T12:00:46.943Z,100.00
2023-01-10T12:06:01.502Z,99.96
2023-01-10T12:11:07.919Z,99.09
2023-01-10T12:16:22.369Z,96.48
2023-01-10T12:21:34.591Z,95.04
2023-01-10T12:26:38.888Z,95.06
2023-01-10T12:31:41.141Z,95.25
2023-01-10T12:36:49.391Z,94.62
2023-01-10T12:42:21.149Z,93.60
2023-01-10T12:47:34.676Z,93.45
2023-01-10T12:52:52.663Z,92.69
2023-01-10T12:57:59.621Z,91.98
2023-01-10T13:03:09.209Z,91.17
2023-01-10T13:08:14.223Z,89.62
2023-01-10T13:13:19.985Z,89.68
2023-01-10T13:18:27.445Z,88.23
2023-01-10T13:23:33.337Z,86.85
2023-01-10T13:28:38.431Z,85.51
2023-01-10T13:33:46.079Z,86.86
2023-01-10T13:38:51.353Z,87.54
2023-01-10T13:44:01.743Z,86.95
2023-01-10T13:49:03.555Z,86.67
2023-01-10T13:54:25.364Z,87.70
2023-01-10T13:59:45.658Z,86.30
2023-01-10T14:04:52.846Z,85.24
2023-01-10T14:10:03.832Z,86.84
2023-01-10T14:15:24.539Z,87.54
2023-01-10T14:20:26.711Z,87.95
2023-01-10T14:25:29.189Z,87.52
2023-01-10T14:30:33.994Z,88.53
2023-01-10T14:35:44.312Z,89.01
2023-01-10T14:40:49.994Z,88.76
2023-01-10T14:46:04.103Z,87.52
2023-01-10T14:51:09.451Z,87.63
2023-01-10T14:56:41.457Z,88.18
2023-01-10T15:01:43.350Z,87.08
2023-01-10T15:07:25.351Z,86.94
2023-01-10T15:12:29.176Z,87.07
2023-01-10T15:17:31.623Z,86.63
2023-01-10T15:22:35.671Z,85.35
2023-01-10T15:27:45.286Z,86.09
2023-01-10T15:32:50.460Z,85.40
2023-01-10T15:37:57.361Z,84.74
2023-01-10T15:43:16.920Z,84.82
2023-01-10T15:48:24.552Z,84.77
2023-01-10T15:54:04.791Z,84.61
2023-01-10T15:59:23.428Z,84.66
2023-01-10T16:04:25.035Z,85.28
2023-01-10T16:09:26.678Z,84.86
2023-01-10T16:14:28.197Z,86.03
2023-01-10T16:19:29.778Z,85.91
2023-01-10T16:24:34.189Z,85.79
2023-01-10T16:29:35.828Z,85.82
2023-01-10T16:34:37.396Z,85.03
2023-01-10T16:39:39.070Z,85.46
2023-01-10T16:44:41.648Z,85.76
2023-01-10T16:49:43.379Z,85.00
2023-01-10T16:54:44.972Z,85.55
2023-01-10T16:59:46.574Z,85.59
2023-01-10T17:04:48.195Z,85.46
2023-01-10T17:09:49.874Z,84.79
2023-01-10T17:14:52.636Z,85.02
2023-01-10T17:19:54.193Z,85.29
2023-01-10T17:24:55.736Z,84.63
2023-01-10T17:29:57.274Z,85.09
2023-01-10T17:34:58.782Z,85.43
2023-01-10T17:40:00.319Z,84.87
2023-01-10T17:45:01.859Z,85.20
2023-01-10T17:50:04.016Z,84.15
2023-01-10T17:55:07.510Z,83.62
2023-01-10T18:00:10.188Z,84.32
2023-01-10T18:05:11.752Z,83.54
2023-01-10T18:10:13.337Z,83.95
2023-01-10T18:15:14.862Z,82.38
2023-01-10T18:20:16.748Z,82.44
2023-01-10T18:25:19.360Z,82.02
2023-01-10T18:30:24.267Z,81.71
2023-01-10T18:35:26.847Z,82.31
2023-01-10T18:40:30.983Z,81.78
2023-01-10T18:45:32.663Z,81.92
2023-01-10T18:50:34.197Z,80.81
2023-01-10T18:55:35.770Z,81.67
2023-01-10T19:00:37.343Z,81.64
2023-01-10T19:05:38.913Z,80.89
2023-01-10T19:11:07.078Z,80.74
2023-01-10T19:16:17.878Z,81.05
2023-01-10T19:21:19.898Z,79.74
2023-01-10T19:26:21.710Z,79.51
2023-01-10T19:31:26.541Z,79.96
2023-01-10T19:36:28.990Z,79.11
2023-01-10T19:41:30.785Z,78.42
2023-01-10T19:46:34.070Z,78.50
2023-01-10T19:51:36.964Z,78.06
2023-01-10T19:56:38.619Z,77.71
2023-01-10T20:01:40.773Z,78.57
2023-01-10T20:06:42.773Z,77.78
2023-01-10T20:11:46.198Z,77.38
2023-01-10T20:16:48.892Z,78.53
2023-01-10T20:21:50.540Z,78.46
2023-01-10T20:26:52.096Z,79.48
2023-01-10T20:31:55.922Z,79.09
2023-01-10T20:36:57.618Z,78.88
2023-01-10T20:41:59.457Z,78.62
2023-01-10T20:47:01.057Z,80.13
2023-01-10T20:52:02.570Z,80.09
2023-01-10T20:57:04.168Z,80.67
2023-01-10T21:02:05.719Z,81.39
2023-01-10T21:07:07.426Z,81.39
2023-01-10T21:12:22.022Z,82.29
2023-01-10T21:17:24.622Z,82.35
2023-01-10T21:22:28.053Z,83.18
2023-01-10T21:27:31.306Z,83.42
2023-01-10T21:32:33.151Z,83.44
2023-01-10T21:37:34.668Z,83.92
2023-01-10T21:42:42.645Z,84.40
2023-01-10T21:47:44.278Z,84.70
2023-01-10T21:52:45.821Z,84.94
2023-01-10T21:57:47.341Z,84.13
2023-01-10T22:02:48.906Z,84.34
2023-01-10T22:07:50.420Z,84.57
2023-01-10T22:12:52.007Z,83.41
2023-01-10T22:17:53.618Z,83.02
2023-01-10T22:22:55.333Z,82.37
2023-01-10T22:27:56.875Z,82.22
2023-01-10T22:32:58.396Z,82.95
2023-01-10T22:37:59.920Z,81.91
2023-01-10T22:43:01.530Z,82.34
2023-01-10T22:48:03.135Z,81.20
2023-01-10T22:53:04.663Z,80.58
2023-01-10T22:58:06.179Z,81.08
2023-01-10T23:03:07.817Z,80.96
2023-01-10T23:08:09.459Z,81.00
2023-01-10T23:13:11.033Z,80.01
2023-01-10T23:18:12.554Z,79.63
2023-01-10T23:23:14.219Z,79.86
2023-01-10T23:28:15.710Z,79.07
2023-01-10T23:33:17.623Z,78.04
2023-01-10T23:38:19.380Z,79.00
2023-01-10T23:43:23.280Z,78.53
2023-01-10T23:48:25.252Z,78.90
2023-01-10T23:53:27.081Z,78.54
2023-01-10T23:58:28.615Z,78.79
